Date,TemperatureHighF,TemperatureAvgF,TemperatureLowF,DewpointHighF,DewpointAvgF,DewpointLowF,HumidityHigh,HumidityAvg,HumidityLow,PressureMaxIn,PressureMinIn,WindSpeedMaxMPH,WindSpeedAvgMPH,GustSpeedMaxMPH,PrecipitationSumIn
2012-1-7,52.0,48.6,45.0,35.0,30.5,25.0,57,49,45,28.17,28.09,5,2,10,0.00
2012-1-8,55.0,40.8,30.0,29.0,22.7,15.0,62,49,36,28.24,28.01,4,2,9,0.03
2012-1-9,54.0,35.2,27.0,29.0,19.6,14.0,79,56,20,28.40,27.87,3,0,5,0.03
2012-1-10,54.0,38.5,28.0,30.0,25.3,20.0,82,60,40,28.41,28.03,4,2,8,0.01
2012-1-11,62.0,39.4,24.0,38.0,29.4,23.0,99,72,29,28.56,27.95,3,1,7,0.00
2012-1-12,48.0,41.2,39.0,48.0,40.9,39.0,99,98,92,28.59,28.47,5,2,11,0.68
2012-1-13,47.0,35.4,27.0,46.0,27.1,10.0,99,73,44,28.61,28.08,8,4,18,4.47
2012-1-14,37.0,28.3,24.0,17.0,14.3,11.0,63,55,44,28.25,28.08,5,3,12,0.00
2012-1-15,37.0,21.7,14.0,12.0,0.5,-4.0,58,41,19,28.22,27.88,5,2,11,0.00
2012-1-16,41.0,26.8,12.0,30.0,11.8,-2.0,88,54,24,28.45,27.91,5,2,11,0.02
2012-1-17,46.0,39.4,34.0,46.0,38.1,28.0,99,95,75,28.61,28.34,3,2,8,10.77
2012-1-18,50.0,37.3,20.0,46.0,19.8,4.0,99,51,25,28.56,27.91,7,3,15,0.27
2012-1-19,48.0,29.6,15.0,26.0,15.1,3.0,82,56,24,28.40,27.91,4,2,7,0.00
2012-1-20,40.0,30.6,23.0,24.0,12.6,5.0,70,48,24,28.30,27.91,5,2,12,0.00
2012-1-21,28.0,24.4,13.0,26.0,20.6,8.0,99,86,45,28.55,28.08,3,2,9,0.02
2012-1-22,37.0,26.1,14.0,28.0,20.9,13.0,95,81,58,28.52,28.20,2,1,6,0.00
2012-1-23,52.0,41.4,28.0,52.0,40.7,27.0,99,97,89,28.61,28.44,4,1,11,3.07
2012-1-24,60.0,48.3,40.0,48.0,37.1,30.0,99,67,44,28.62,28.06,4,2,11,0.28
2012-1-25,53.0,40.1,35.0,31.0,26.3,23.0,70,58,40,28.30,28.02,5,2,10,0.02
2012-1-26,43.0,35.3,31.0,40.0,31.6,24.0,99,87,59,28.60,28.20,2,0,6,0.00
2012-1-27,58.0,47.8,41.0,58.0,5.5,-99.9,99,69,77,28.62,28.34,8,3,17,5.12
2012-1-28,59.0,41.9,31.0,34.0,-23.2,-99.9,81,34,36,28.39,27.99,5,2,13,0.00
2012-1-29,48.0,38.5,30.0,23.0,16.8,10.0,53,41,26,28.15,27.91,5,3,12,0.00
2012-1-30,47.0,36.5,31.0,24.0,17.0,11.0,64,46,26,28.24,27.92,5,3,13,0.00
2012-1-31,66.0,45.4,34.0,38.0,30.5,17.0,84,58,27,28.42,27.92,5,2,10,0.00
2012-2-1,69.0,52.4,40.0,44.0,37.7,32.0,91,59,40,28.46,28.02,6,2,13,0.00
2012-2-2,48.0,41.0,35.0,36.0,29.7,20.0,88,65,48,28.43,28.11,3,2,10,0.00
2012-2-3,54.0,36.2,27.0,25.0,18.8,15.0,69,50,24,28.29,27.91,4,2,10,0.00
2012-2-4,55.0,39.9,28.0,29.0,23.3,19.0,74,52,36,28.32,28.00,3,1,7,0.00
2012-2-5,54.0,34.4,28.0,26.0,19.6,16.0,74,56,27,28.34,27.92,2,1,6,0.00
2012-2-6,57.0,40.2,24.0,32.0,24.1,17.0,79,54,38,28.38,28.02,5,2,11,0.00
2012-2-7,60.0,41.9,32.0,33.0,26.9,24.0,78,57,30,28.36,27.96,5,2,10,0.00
2012-2-8,47.0,32.8,27.0,30.0,21.9,13.0,99,67,26,28.58,27.91,2,0,6,0.00
2012-2-9,57.0,36.9,25.0,30.0,23.3,16.0,99,64,23,28.60,27.89,4,2,99,0.00
2012-2-10,55.0,38.3,24.0,37.0,26.7,21.0,95,67,28,28.50,27.93,4,1,7,0.00
2012-2-11,39.0,33.7,30.0,35.0,28.6,19.0,99,82,58,28.61,28.20,3,1,10,0.00
2012-2-12,35.0,26.1,18.0,20.0,9.4,-2.0,72,49,39,28.31,28.05,6,4,18,0.00
2012-2-13,49.0,35.0,24.0,24.0,16.9,11.0,65,48,27,28.27,27.93,5,3,99,0.00
2012-2-14,54.0,40.3,33.0,37.0,23.1,13.0,99,53,23,28.56,27.89,4,1,8,0.00
2012-2-15,45.0,39.1,35.0,40.0,36.7,32.0,99,91,73,28.60,28.32,2,0,6,0.00
2012-2-16,43.0,35.8,27.0,40.0,33.9,27.0,99,93,63,28.61,28.23,2,0,5,0.01
2012-2-17,61.0,45.0,37.0,44.0,32.5,19.0,99,66,34,28.63,27.99,5,2,12,9.82
2012-2-18,61.0,41.4,32.0,36.0,24.4,-99.9,98,55,21,28.53,27.88,4,2,10,0.00
2012-2-19,55.0,39.3,30.0,31.0,23.7,18.0,88,57,23,28.45,27.91,3,1,9,0.00
2012-2-20,55.0,35.7,23.0,22.0,15.3,3.0,69,47,18,29.86,28.03,4,2,10,0.00
2012-2-21,54.0,36.1,18.0,38.0,24.2,12.0,89,65,31,29.85,29.56,5,2,12,0.00
2012-2-22,64.0,46.6,33.0,41.0,33.6,20.0,93,65,25,29.56,29.32,5,2,11,0.00
2012-2-23,64.0,49.4,37.0,43.0,37.0,27.0,97,69,28,29.32,29.23,6,2,13,0.00
2012-2-24,42.0,39.7,35.0,42.0,38.5,33.0,99,95,73,29.41,29.21,6,2,13,0.00
2012-2-25,43.0,38.2,32.0,31.0,20.5,14.0,67,49,37,29.35,29.26,7,5,14,0.00
2012-2-26,55.0,38.6,22.0,18.0,12.6,8.0,68,38,17,29.95,29.85,3,1,9,0.00
2012-2-27,62.0,41.4,21.0,37.0,28.8,15.0,93,63,39,29.91,29.68,5,2,10,0.00
2012-2-28,60.0,44.2,33.0,29.0,19.3,15.0,56,38,23,29.88,29.68,7,3,15,0.00
2012-2-29,44.0,36.9,29.0,39.0,28.9,14.0,99,75,47,29.88,29.47,3,1,8,0.00
2012-3-1,42.0,36.8,28.0,39.0,35.2,24.0,99,94,84,29.62,29.41,2,1,6,0.00
2012-3-2,42.0,34.4,27.0,34.0,27.9,23.0,88,77,64,29.71,29.62,3,2,8,0.00
2012-3-3,59.0,48.9,38.0,50.0,35.0,8.0,99,65,24,29.41,29.29,5,2,13,0.00
2012-3-4,51.0,39.6,31.0,21.0,16.9,10.0,58,40,26,29.47,29.35,5,2,11,0.00
2012-3-5,52.0,36.2,23.0,21.0,9.3,-5.0,58,34,21,29.85,29.47,5,3,10,0.00
2012-3-6,57.0,34.3,19.0,27.0,12.1,-8.0,70,43,13,30.03,29.85,5,2,14,0.00
2012-3-7,67.0,44.7,29.0,42.0,31.5,20.0,89,63,29,30.00,29.83,5,2,11,0.00
2012-3-8,73.0,53.4,40.0,49.0,43.5,36.0,93,71,39,29.83,29.53,5,3,13,0.00
2012-3-9,55.0,43.6,33.0,47.0,23.4,10.0,93,48,23,29.80,29.53,5,3,15,0.00
2012-3-10,52.0,35.2,18.0,18.0,10.3,-11.0,59,37,20,29.97,29.80,6,2,13,0.00
2012-3-11,62.0,44.0,29.0,36.0,24.1,-99.9,79,50,26,29.97,29.85,5,2,10,0.01
2012-3-12,80.0,55.4,34.0,41.0,34.5,29.0,87,50,19,29.85,29.71,3,1,7,0.00
2012-3-13,75.0,54.7,41.0,55.0,47.2,35.0,98,78,45,29.71,29.59,3,1,8,0.00
2012-3-14,77.0,59.8,44.0,49.0,31.0,13.0,99,44,11,29.74,29.62,5,2,10,0.00
2012-3-15,52.0,43.0,35.0,40.0,36.9,23.0,97,80,45,29.83,29.74,3,2,7,0.00
2012-3-16,50.0,42.4,29.0,44.0,40.2,28.0,99,93,76,29.83,29.71,3,1,7,0.00
2012-3-17,81.0,54.0,38.0,50.0,42.0,36.0,99,69,28,29.85,29.74,3,1,8,0.00
2012-3-18,73.0,52.3,42.0,48.0,43.8,41.0,98,77,39,29.86,29.77,3,1,7,0.00
2012-3-19,81.0,57.2,39.0,53.0,44.8,34.0,99,69,32,29.77,29.74,3,1,7,0.00
2012-3-20,89.0,61.0,44.0,59.0,52.2,-99.9,99,79,36,29.83,29.77,3,1,6,0.00
2012-3-21,78.0,59.1,52.0,60.0,54.9,52.0,99,87,51,29.85,29.81,2,1,5,0.00
2012-3-22,84.0,61.5,52.0,60.0,53.5,-99.9,99,80,40,29.83,29.68,3,-6,7,0.00
2012-3-23,91.0,63.2,49.0,56.0,47.0,33.0,99,62,25,29.68,29.65,4,1,9,0.00
2012-3-24,70.0,55.9,46.0,43.0,30.0,19.0,83,42,17,29.68,29.62,5,2,11,0.00
2012-3-25,54.0,45.0,38.0,44.0,39.2,31.0,93,80,69,29.62,29.45,3,1,8,0.00
2012-3-26,64.0,46.3,33.0,45.0,24.2,3.0,99,51,17,29.72,29.41,7,3,15,0.00
2012-3-27,59.0,40.7,27.0,12.0,1.7,-3.0,35,21,9,29.80,29.68,5,2,11,0.00
2012-3-28,66.0,52.5,37.0,48.0,33.0,11.0,78,48,32,29.74,29.33,5,2,11,0.00
2012-3-29,66.0,52.6,40.0,48.0,33.8,22.0,76,50,31,29.62,29.33,6,3,13,0.00
2012-3-30,69.0,47.5,36.0,34.0,23.4,16.0,68,43,15,29.68,29.59,3,2,7,0.00
2012-3-31,44.0,38.8,35.0,39.0,36.1,33.0,98,90,64,29.64,29.53,3,1,7,0.00
2012-4-1,65.0,45.4,39.0,44.0,36.4,31.0,97,73,34,29.56,29.42,3,1,8,0.00
2012-4-2,60.0,51.6,44.0,24.0,17.0,12.0,31,25,20,29.53,29.44,4,3,12,0.00
2012-4-3,71.0,52.0,36.0,20.0,15.6,13.0,51,26,11,29.59,29.47,5,2,10,0.00
2012-4-4,78.0,59.0,46.0,30.0,22.4,15.0,42,26,14,29.47,29.32,5,2,12,0.00
2012-4-5,70.0,50.5,37.0,35.0,24.1,20.0,68,38,19,29.59,29.44,4,2,9,0.00
2012-4-6,66.0,48.7,32.0,24.0,19.9,14.0,64,35,16,29.64,29.56,4,2,11,0.00
2012-4-7,69.0,50.8,35.0,22.0,17.4,11.0,53,29,13,29.68,29.59,5,2,12,0.00
2012-4-8,74.0,55.8,38.0,27.0,18.5,15.0,45,24,14,29.65,29.41,7,2,16,0.00
2012-4-9,67.0,56.3,47.0,27.0,19.8,15.0,42,25,15,29.44,29.38,7,4,16,0.00
2012-4-10,65.0,52.4,38.0,36.0,25.7,16.0,62,37,21,29.50,29.41,5,2,11,0.00
2012-4-11,67.0,48.0,40.0,32.0,28.2,23.0,69,48,25,29.56,29.47,3,1,8,0.00
2012-4-12,75.0,52.7,41.0,37.0,30.3,24.0,69,45,21,29.71,29.56,4,2,9,0.00
2012-4-13,78.0,54.6,41.0,39.0,31.2,22.0,76,47,15,29.77,29.68,4,1,10,0.00
2012-4-14,81.0,57.1,37.0,43.0,34.0,26.0,81,48,14,29.77,29.65,3,1,8,0.00
2012-4-15,83.0,64.7,55.0,55.0,47.0,-99.9,77,55,37,29.65,29.59,4,1,9,0.00
2012-4-16,95.0,66.3,52.0,59.0,53.8,49.0,95,69,28,29.65,29.56,4,1,8,0.00
2012-4-17,90.0,70.2,55.0,56.0,39.9,27.0,92,43,13,29.71,29.56,4,2,8,0.00
2012-4-18,81.0,56.1,46.0,39.0,31.5,27.0,75,42,16,29.80,29.70,2,1,8,0.00
2012-4-19,79.0,55.4,43.0,48.0,44.1,38.0,93,70,30,29.71,29.65,3,1,6,0.00
2012-4-20,83.0,57.5,43.0,55.0,46.2,40.0,99,71,29,29.65,29.53,3,1,8,0.00
2012-4-21,83.0,61.0,54.0,57.0,54.4,52.0,99,82,37,29.53,29.41,3,2,9,0.00
2012-4-22,56.0,48.2,44.0,55.0,44.7,-99.9,99,91,68,29.48,29.18,3,2,9,0.00
2012-4-23,55.0,48.7,42.0,55.0,44.6,36.0,99,86,69,29.23,29.08,4,2,10,0.00
2012-4-24,64.0,49.4,39.0,43.0,31.8,20.0,79,55,22,29.44,29.23,6,3,14,0.00
2012-4-25,72.0,51.0,35.0,41.0,34.3,26.0,92,58,23,29.56,29.44,3,1,8,0.00
2012-4-26,71.0,49.5,38.0,53.0,44.7,37.0,99,86,43,29.59,29.35,3,1,8,0.00
2012-4-27,60.0,48.8,39.0,54.0,30.7,22.0,99,52,30,29.71,29.35,6,4,14,0.00
2012-4-28,64.0,49.1,37.0,32.0,23.8,19.0,58,39,19,31.39,29.68,4,2,8,0.00
2012-4-29,72.0,53.3,27.0,30.0,18.8,-99.9,69,31,13,29.77,29.67,5,2,10,0.00
2012-4-30,76.0,51.6,37.0,40.0,26.5,15.0,70,42,11,29.95,29.77,3,1,8,0.00
2012-5-1,72.0,56.7,46.0,59.0,49.8,40.0,99,79,52,29.77,29.60,3,1,9,0.00
2012-5-2,54.0,50.3,44.0,49.0,46.2,40.0,93,86,74,29.74,29.68,2,0,6,0.00
2012-5-3,63.0,52.5,44.0,52.0,49.7,44.0,99,90,68,29.74,29.67,3,1,5,3.35
2012-5-4,75.0,59.8,46.0,61.0,55.0,46.0,99,86,59,29.68,29.53,2,1,6,0.03
2012-5-5,62.0,55.6,47.0,56.0,53.4,46.0,99,93,81,29.65,29.56,2,0,5,0.00
2012-5-6,81.0,56.9,46.0,52.0,46.5,-99.9,97,74,28,29.71,29.65,3,1,8,0.00
2012-5-7,79.0,55.4,45.0,52.0,45.2,39.0,99,73,34,29.71,29.67,3,1,8,0.00
2012-5-8,67.0,57.7,53.0,54.0,49.3,43.0,95,74,56,29.68,29.53,5,3,12,0.00
2012-5-9,64.0,59.1,55.0,62.0,58.4,54.0,99,97,90,29.53,29.35,2,1,5,0.61
2012-5-10,73.0,58.1,46.0,59.0,43.5,31.0,99,64,30,29.52,29.29,6,2,12,3.35
2012-5-11,74.0,59.8,43.0,39.0,31.5,25.0,83,39,20,29.68,29.53,4,2,11,0.00
2012-5-12,89.0,63.3,43.0,46.0,37.9,28.0,84,46,13,29.77,29.68,3,1,9,0.00
2012-5-13,90.0,67.5,52.0,56.0,49.6,-99.9,83,57,26,29.74,29.67,3,1,8,0.00
2012-5-14,78.0,65.7,60.0,60.0,56.5,54.0,90,73,52,29.74,29.67,3,2,8,0.00
2012-5-15,64.0,60.7,56.0,61.0,57.8,54.0,99,90,76,29.71,29.59,3,2,9,0.00
2012-5-16,83.0,65.8,55.0,66.0,60.9,55.0,99,85,56,29.59,29.53,3,1,8,0.00
2012-5-17,82.0,65.9,52.0,59.0,42.0,33.0,98,47,19,29.71,29.56,3,1,6,0.00
2012-5-18,86.0,63.2,48.0,48.0,40.0,33.0,84,48,19,29.77,29.71,4,1,9,0.00
2012-5-19,92.0,65.8,46.0,47.0,42.0,37.0,84,47,18,29.74,29.70,3,1,8,0.00
2012-5-20,95.0,70.1,52.0,58.0,42.3,-99.9,86,45,13,29.77,29.71,3,1,9,0.00
2012-5-21,64.0,59.9,56.0,63.0,57.7,53.0,99,93,72,29.77,29.62,2,0,6,0.04
2012-5-22,79.0,65.1,57.0,63.0,60.2,57.0,99,85,55,29.62,29.50,1,0,4,0.00
2012-5-23,88.0,67.6,59.0,65.0,61.5,58.0,98,82,46,29.65,29.53,3,1,8,0.00
2012-5-24,75.0,63.7,59.0,64.0,61.4,58.0,99,93,65,29.77,29.65,3,1,7,0.00
2012-5-25,83.0,66.6,60.0,68.0,63.6,60.0,99,91,59,29.77,29.71,3,1,6,4.37
2012-5-26,95.0,73.1,62.0,71.0,66.0,62.0,99,81,44,29.73,29.68,3,1,7,1.84
2012-5-27,100.0,74.0,44.0,69.0,62.6,39.0,99,73,28,29.74,29.65,3,1,7,0.00
2012-5-28,102.0,80.5,66.0,71.0,65.8,62.0,96,65,32,29.65,29.56,3,1,7,0.00
2012-5-29,99.0,79.7,67.0,74.0,67.8,62.0,98,70,43,29.56,29.44,4,2,9,0.00
2012-5-30,83.0,72.8,64.0,66.0,62.7,56.0,93,72,45,29.48,29.44,2,1,5,0.00
2012-5-31,91.0,74.9,63.0,63.0,52.7,45.0,98,53,24,29.59,29.44,4,1,8,0.00
2012-6-1,88.0,67.9,58.0,60.0,52.7,46.0,93,61,31,29.62,29.50,4,2,13,0.00
2012-6-2,86.0,69.4,62.0,68.0,55.4,43.0,99,66,34,29.50,29.41,4,2,10,0.00
2012-6-3,87.0,67.0,52.0,56.0,47.4,-99.9,88,54,26,29.47,29.38,6,2,14,0.00
2012-6-4,71.0,58.4,51.0,54.0,49.1,44.0,91,72,45,29.50,29.38,4,1,8,0.00
2012-6-5,76.0,59.8,49.0,54.0,47.0,43.0,95,66,34,29.59,29.50,3,1,6,0.00
2012-6-6,84.0,62.4,46.0,61.0,50.6,46.0,99,70,30,29.62,29.59,3,1,7,0.00
2012-6-7,92.0,68.4,54.0,60.0,53.4,47.0,98,66,25,29.62,29.56,3,1,8,0.00
2012-6-8,92.0,70.2,41.0,61.0,54.1,41.0,99,64,24,29.59,29.50,3,1,7,0.00
2012-6-9,92.0,70.3,59.0,58.0,55.1,50.0,89,62,27,29.62,29.53,2,0,4,0.00
2012-6-10,101.0,74.8,64.0,64.0,59.8,-99.9,96,66,28,29.74,29.62,3,1,6,0.00
2012-6-11,84.0,69.7,61.0,63.0,57.7,50.0,96,70,32,29.80,29.73,4,2,10,0.00
2012-6-12,79.0,65.3,60.0,65.0,61.9,58.0,99,89,60,29.74,29.56,4,2,11,0.00
2012-6-13,68.0,64.5,62.0,67.0,63.8,62.0,99,97,92,29.65,29.53,3,1,7,4.22
2012-6-14,85.0,69.7,59.0,62.0,59.7,55.0,99,74,43,29.79,29.65,3,1,8,5.52
2012-6-15,91.0,70.6,54.0,61.0,52.0,46.0,99,60,22,29.83,29.77,3,1,7,0.00
2012-6-16,96.0,69.8,53.0,58.0,53.0,45.0,96,63,21,29.83,29.77,4,1,10,0.00
2012-6-17,87.0,64.5,54.0,55.0,51.8,-99.9,89,67,32,29.77,29.70,3,1,9,0.00
2012-6-18,83.0,64.3,52.0,55.0,52.2,50.0,97,69,32,29.71,29.68,3,1,6,0.00
2012-6-19,83.0,66.9,58.0,63.0,59.4,54.0,90,78,50,29.74,29.67,4,1,8,0.00
2012-6-20,110.0,86.0,64.0,72.0,66.7,62.0,93,58,28,29.68,29.59,3,1,7,0.00
2012-6-21,106.0,90.0,76.0,69.0,65.3,61.0,74,47,26,29.59,29.47,3,2,7,0.00
2012-6-22,115.0,82.5,65.0,73.0,66.7,61.0,99,66,21,29.53,29.47,3,1,8,0.07
2012-6-23,96.0,77.9,62.0,71.0,58.8,47.0,99,59,26,29.62,29.50,4,1,9,0.01
2012-6-24,100.0,77.0,60.0,64.0,55.8,49.0,90,53,20,29.65,29.56,3,1,8,0.00
2012-6-25,81.0,66.8,56.0,68.0,62.9,56.0,99,89,51,29.59,29.41,3,1,10,0.00
2012-6-26,77.0,66.0,54.0,58.0,49.0,43.0,99,57,40,29.47,29.41,5,2,13,0.00
2012-6-27,84.0,74.8,62.0,50.0,46.2,42.0,57,38,25,29.53,29.44,5,2,11,0.00
2012-6-28,97.0,79.8,65.0,64.0,55.0,48.0,70,45,22,29.53,29.44,3,1,7,0.00
2012-6-29,101.0,83.3,66.0,70.0,65.5,60.0,97,59,34,29.46,29.38,3,1,8,0.00
2012-6-30,102.0,87.6,74.0,69.0,60.8,49.0,69,44,20,29.47,29.41,4,2,8,0.00
2012-7-1,103.0,85.2,68.0,68.0,63.9,58.0,85,52,31,29.53,29.47,3,1,8,0.00
2012-7-2,101.0,82.9,66.0,59.0,54.1,50.0,69,39,23,29.57,29.53,3,1,6,0.00
2012-7-3,105.0,81.2,64.0,70.0,58.1,52.0,88,50,22,29.59,29.52,3,1,7,0.00
2012-7-4,99.0,81.2,69.0,71.0,68.1,62.0,93,67,38,29.53,29.44,3,1,8,0.00
2012-7-5,105.0,88.8,75.0,70.0,64.5,55.0,71,47,25,29.53,29.44,3,1,7,0.00
2012-7-6,106.0,82.4,68.0,68.0,63.9,58.0,89,58,25,29.59,29.53,3,1,8,0.00
2012-7-7,107.0,85.7,73.0,71.0,66.1,61.0,88,56,26,29.56,29.49,4,1,8,0.00
2012-7-8,103.0,82.2,71.0,73.0,65.2,53.0,99,63,22,29.56,29.50,3,1,8,0.00
2012-7-9,99.0,77.8,70.0,70.0,57.4,52.0,86,52,22,29.62,29.53,3,1,7,0.00
2012-7-10,102.0,78.2,66.0,66.0,59.5,52.0,84,57,21,29.68,29.61,3,1,9,0.00
2012-7-11,100.0,76.9,68.0,69.0,63.4,56.0,94,68,26,29.74,29.68,3,1,8,0.00
2012-7-12,106.0,77.9,64.0,71.0,62.0,54.0,97,63,24,29.77,29.72,4,1,10,0.00
2012-7-13,103.0,79.1,68.0,67.0,62.8,58.0,82,60,28,29.77,29.73,3,1,7,0.00
2012-7-14,95.0,79.3,73.0,68.0,61.4,57.0,83,57,32,29.74,29.71,4,1,8,0.01
2012-7-15,100.0,79.5,70.0,75.0,69.3,64.0,97,72,41,29.74,29.59,3,1,8,0.00
2012-7-16,103.0,82.1,66.0,72.0,66.4,62.0,97,64,30,29.59,29.49,3,1,7,0.00
2012-7-17,104.0,85.6,71.0,68.0,64.0,61.0,75,50,27,29.53,29.47,3,1,10,0.00
2012-7-18,112.0,83.6,69.0,74.0,69.4,64.0,99,67,28,29.56,29.47,3,1,8,0.00
2012-7-19,87.0,74.2,69.0,74.0,65.3,60.0,99,75,44,29.62,29.53,1,1,5,0.00
2012-7-20,70.0,64.8,61.0,64.0,61.6,58.0,97,89,78,29.66,29.59,2,1,6,0.00
2012-7-21,92.0,70.0,57.0,62.0,58.2,52.0,99,70,28,29.71,29.65,3,1,7,0.00
2012-7-22,95.0,74.5,62.0,66.0,58.9,55.0,93,62,28,29.74,29.71,3,1,8,0.00
2012-7-23,101.0,76.7,67.0,74.0,68.5,62.0,92,77,37,29.71,29.50,4,1,9,0.00
2012-7-24,100.0,83.4,71.0,72.0,65.7,58.0,95,60,33,29.50,29.38,4,2,10,0.00
2012-7-25,93.0,76.9,64.0,65.0,53.1,48.0,80,46,26,29.56,29.44,3,1,7,0.00
2012-7-26,93.0,76.8,67.0,73.0,66.3,57.0,99,71,52,29.50,29.38,6,2,13,0.00
2012-7-27,95.0,81.0,70.0,72.0,68.2,65.0,99,69,42,29.53,29.41,3,1,7,0.00
2012-7-28,85.0,73.9,66.0,71.0,68.9,65.0,98,85,62,29.60,29.53,3,0,5,0.00
2012-7-29,83.0,72.9,66.0,68.0,65.6,62.0,97,79,53,29.65,29.56,1,0,3,0.00
2012-7-30,92.0,73.1,64.0,66.0,63.5,62.0,95,75,40,29.71,29.65,4,1,8,0.00
2012-7-31,85.0,73.4,65.0,67.0,63.2,60.0,92,72,46,29.68,29.56,2,0,5,0.00
2012-8-1,93.0,73.2,66.0,73.0,68.7,64.0,97,87,46,29.59,29.53,3,1,7,0.00
2012-8-2,101.0,80.6,66.0,74.0,68.8,66.0,99,71,33,29.59,29.53,3,1,7,1.64
2012-8-3,102.0,83.4,71.0,76.0,72.1,68.0,98,72,37,29.71,29.59,3,1,10,0.00
2012-8-4,101.0,82.6,72.0,77.0,72.1,68.0,97,74,40,29.77,29.71,4,2,9,0.00
2012-8-5,99.0,80.6,71.0,77.0,73.8,69.0,98,81,49,29.77,29.59,5,2,12,0.00
2012-8-6,88.0,75.8,70.0,74.0,65.1,54.0,99,74,34,29.65,29.59,3,1,6,0.00
2012-8-7,99.0,77.4,62.0,65.0,59.9,46.0,91,59,19,29.64,29.59,3,1,7,0.00
2012-8-8,101.0,79.9,66.0,72.0,68.2,65.0,98,72,34,29.62,29.59,3,1,6,0.00
2012-8-9,101.0,81.2,70.0,76.0,70.8,66.0,99,75,37,29.61,29.56,4,1,9,0.00
2012-8-10,83.0,76.4,68.0,75.0,72.2,68.0,99,88,72,29.56,29.47,4,2,10,0.00
2012-8-11,95.0,79.0,72.0,74.0,71.8,68.0,98,80,49,29.59,29.50,4,2,10,0.00
2012-8-12,104.0,81.1,72.0,71.0,62.5,-99.9,92,59,26,29.59,29.56,4,1,10,0.00
2012-8-13,92.0,78.2,66.0,61.0,57.4,52.0,79,52,31,29.62,29.59,3,1,7,0.00
2012-8-14,94.0,75.9,64.0,71.0,64.7,59.0,92,71,38,29.62,29.56,3,1,8,0.00
2012-8-15,94.0,73.8,66.0,74.0,70.1,66.0,99,90,47,29.56,29.53,3,0,5,0.06
2012-8-16,76.0,67.3,64.0,69.0,66.2,64.0,99,96,75,29.56,29.53,2,0,4,4.34
2012-8-17,95.0,82.6,63.0,69.0,65.8,61.0,93,59,38,29.56,29.49,4,2,9,0.00
2012-8-18,91.0,71.0,61.0,68.0,61.2,54.0,99,75,36,29.56,29.53,3,0,6,0.00
2012-8-19,86.0,71.0,57.0,59.0,54.0,50.0,91,59,33,29.62,29.56,2,0,4,0.00
2012-8-20,91.0,72.9,61.0,62.0,58.3,56.0,90,63,34,29.59,29.53,3,0,6,0.00
2012-8-21,99.0,75.6,64.0,62.0,58.4,50.0,89,60,23,29.68,29.59,2,1,5,0.00
2012-8-22,100.0,73.8,62.0,68.0,61.6,56.0,97,70,26,29.71,29.68,3,1,7,0.00
2012-8-23,99.0,74.6,62.0,70.0,63.7,60.0,99,73,29,29.74,29.70,3,1,7,0.00
2012-8-24,101.0,77.3,64.0,71.0,64.2,57.0,99,70,26,29.74,29.71,2,0,5,0.00
2012-8-25,101.0,76.2,66.0,71.0,63.6,59.0,99,70,28,29.80,29.74,3,1,8,0.00
2012-8-26,97.0,74.0,64.0,66.0,62.0,59.0,96,70,31,29.83,29.77,3,1,8,0.00
2012-8-27,93.0,74.0,66.0,72.0,68.3,63.0,99,84,41,29.77,29.62,3,1,10,0.00
2012-8-28,92.0,78.3,72.0,74.0,64.8,54.0,99,67,37,29.62,29.50,4,2,9,0.00
2012-8-29,91.0,71.7,63.0,59.0,53.0,45.0,79,55,25,29.62,29.56,3,1,6,0.00
2012-8-30,91.0,72.0,55.0,60.0,50.7,39.0,96,54,21,29.68,29.62,3,1,7,0.00
2012-8-31,98.0,78.0,60.0,66.0,57.2,51.0,88,53,26,29.65,29.56,4,2,9,0.00
2012-9-1,103.0,80.6,72.0,69.0,63.6,58.0,87,59,29,29.67,29.56,3,2,9,0.00
2012-9-2,93.0,75.8,67.0,69.0,66.0,63.0,93,73,42,29.68,29.65,3,1,6,0.00
2012-9-3,86.0,72.7,67.0,69.0,64.6,61.0,96,78,47,29.74,29.68,3,2,9,0.00
2012-9-4,80.0,72.8,65.0,76.0,70.7,64.0,99,93,76,29.68,29.53,3,1,9,0.00
2012-9-5,89.0,75.6,68.0,77.0,71.9,66.0,99,89,65,29.53,29.47,4,1,8,0.00
2012-9-6,91.0,73.4,65.0,69.0,66.7,65.0,99,81,45,29.56,29.53,2,0,6,1.88
2012-9-7,101.0,77.6,65.0,73.0,68.1,65.0,99,76,36,29.59,29.53,3,1,7,0.39
2012-9-8,83.0,73.7,62.0,74.0,69.6,60.0,99,88,73,29.56,29.38,6,3,15,0.00
2012-9-9,80.0,63.7,61.0,63.0,59.3,52.0,99,87,52,29.56,29.47,2,0,6,0.00
2012-9-10,83.0,66.3,57.0,57.0,47.3,39.0,81,54,28,29.71,29.56,5,1,8,0.00
2012-9-11,86.0,64.1,49.0,51.0,43.1,39.0,86,51,22,29.80,29.71,2,1,5,0.00
2012-9-12,94.0,68.8,51.0,63.0,52.2,48.0,99,63,22,29.85,29.80,3,1,8,0.00
2012-9-13,92.0,69.6,55.0,67.0,56.8,54.0,99,69,31,29.85,29.80,3,1,7,0.00
2012-9-14,89.0,70.3,56.0,69.0,58.9,55.0,99,72,34,29.80,29.68,3,1,8,0.00
2012-9-15,83.0,67.9,58.0,61.0,50.8,44.0,87,57,30,29.71,29.65,4,2,8,0.00
2012-9-16,85.0,64.6,50.0,52.0,48.7,45.0,92,61,28,29.71,29.65,3,1,7,0.00
2012-9-17,92.0,67.0,49.0,63.0,50.7,48.0,98,62,24,29.68,29.65,3,1,7,0.00
2012-9-18,75.0,70.1,63.0,70.0,65.6,58.0,99,86,75,29.65,29.41,8,4,18,0.00
2012-9-19,82.0,64.9,55.0,65.0,48.1,40.0,99,59,28,29.74,29.47,4,2,8,0.00
2012-9-20,78.0,61.6,51.0,56.0,51.5,45.0,90,71,43,29.74,29.71,3,1,8,0.00
2012-9-21,90.0,64.6,54.0,55.0,52.4,47.0,96,70,28,29.71,29.62,3,1,6,0.00
2012-9-22,82.0,65.2,51.0,67.0,59.9,51.0,99,84,50,29.62,29.50,5,2,10,0.00
2012-9-23,78.0,63.3,51.0,64.0,47.0,-99.9,99,63,26,29.68,29.53,3,2,10,0.00
2012-9-24,78.0,57.8,46.0,49.0,41.4,34.0,95,61,23,29.73,29.68,3,1,7,0.00
2012-9-25,78.0,60.7,41.0,56.0,48.9,40.0,98,69,39,29.74,29.71,4,2,12,0.00
2012-9-26,81.0,67.8,62.0,64.0,59.4,54.0,94,75,51,29.71,29.65,3,2,8,0.00
2012-9-27,90.0,68.7,63.0,64.0,60.9,56.0,97,79,34,29.74,29.65,3,0,5,0.00
2012-9-28,74.0,64.9,60.0,72.0,64.0,60.0,99,96,81,29.74,29.59,5,1,10,0.00
2012-9-29,67.0,59.6,55.0,60.0,55.5,53.0,99,87,63,29.59,29.53,2,0,4,0.00
2012-9-30,80.0,60.6,54.0,55.0,51.1,44.0,99,74,35,29.56,29.47,3,1,8,0.00
2012-10-1,75.0,60.8,47.0,51.0,46.9,44.0,94,63,38,29.62,29.50,4,1,9,0.00
2012-10-2,77.0,63.0,57.0,64.0,58.2,51.0,99,85,49,29.65,29.59,2,0,5,0.00
2012-10-3,80.0,68.3,63.0,71.0,66.3,63.0,99,93,70,29.71,29.62,1,0,5,0.00
2012-10-4,77.0,68.2,63.0,70.0,66.5,63.0,99,94,74,29.71,29.65,2,0,6,4.93
2012-10-5,66.0,63.3,62.0,64.0,59.7,57.0,99,88,75,29.65,29.59,1,0,4,0.00
2012-10-6,81.0,64.7,53.0,64.0,55.8,42.0,99,75,53,29.62,29.47,4,2,10,0.00
2012-10-7,64.0,50.1,44.0,47.0,42.0,35.0,99,75,41,29.70,29.62,3,0,6,0.00
2012-10-8,65.0,50.4,39.0,45.0,42.0,38.0,99,76,43,29.80,29.68,2,0,4,0.00
2012-10-9,62.0,53.2,47.0,57.0,50.1,41.0,97,89,78,29.77,29.68,1,1,6,0.00
2012-10-10,75.0,59.2,52.0,64.0,51.4,37.0,99,77,50,29.68,29.49,5,2,11,0.00
2012-10-11,68.0,53.4,46.0,37.0,33.5,30.0,64,48,28,29.74,29.59,4,2,11,0.00
2012-10-12,64.0,49.0,42.0,42.0,35.5,24.0,95,62,35,29.88,29.68,5,2,10,0.00
2012-10-13,70.0,47.8,32.0,39.0,27.8,20.0,85,50,19,29.94,29.83,3,1,7,0.00
2012-10-14,73.0,59.8,50.0,57.0,50.0,40.0,88,71,47,29.83,29.61,4,3,10,0.00
2012-10-15,75.0,64.5,56.0,63.0,59.6,56.0,99,85,63,29.61,29.38,4,2,10,0.00
2012-10-16,64.0,53.8,46.0,56.0,39.2,34.0,99,60,37,29.58,29.41,5,2,13,0.00
2012-10-17,74.0,51.4,37.0,46.0,40.2,36.0,98,71,29,29.65,29.56,2,0,4,0.00
2012-10-18,76.0,55.1,39.0,57.0,47.7,39.0,99,80,39,29.65,29.59,4,1,9,0.00
2012-10-19,65.0,62.2,58.0,64.0,61.6,55.0,99,97,83,29.59,29.41,4,2,10,0.00
2012-10-20,84.0,64.5,54.0,65.0,52.5,37.0,99,69,37,29.53,29.41,4,2,8,0.07
2012-10-21,71.0,56.9,47.0,43.0,38.7,35.0,76,52,34,29.62,29.53,4,2,10,0.00
2012-10-22,74.0,58.5,48.0,44.0,40.7,38.0,74,53,32,29.68,29.62,5,2,10,0.00
2012-10-23,78.0,57.2,46.0,54.0,47.6,41.0,95,74,33,29.71,29.66,1,0,3,0.00
2012-10-24,64.0,56.5,52.0,56.0,53.0,50.0,98,89,70,29.74,29.68,1,0,4,0.00
2012-10-25,64.0,57.0,51.0,53.0,50.1,48.0,91,78,65,29.80,29.74,2,0,4,0.00
2012-10-26,79.0,61.1,52.0,58.0,54.1,50.0,94,79,46,29.77,29.71,2,0,4,0.00
2012-10-27,75.0,61.7,55.0,56.0,53.0,49.0,91,75,43,29.71,29.56,2,0,6,0.00
2012-10-28,57.0,55.1,53.0,52.0,47.4,41.0,91,76,57,29.56,29.41,3,2,9,0.00
2012-10-29,56.0,51.8,49.0,56.0,51.1,47.0,99,97,78,29.41,28.88,5,4,13,0.00
2012-11-9,48.0,42.8,38.0,32.0,29.7,25.0,79,61,41,29.77,29.68,3,1,8,0.00
2012-11-10,63.0,45.3,32.0,41.0,36.9,31.0,99,75,41,29.91,29.74,1,0,4,0.00
2012-11-11,74.0,51.7,36.0,57.0,45.9,36.0,99,84,44,29.94,29.88,3,1,9,0.00
2012-11-12,77.0,57.6,43.0,60.0,53.5,43.0,99,88,51,29.94,29.77,4,2,10,0.00
2012-11-13,57.0,46.6,37.0,57.0,42.8,27.0,99,87,65,29.91,29.71,5,2,13,0.00
2012-11-14,59.0,40.8,32.0,30.0,26.7,-99.9,80,60,32,29.94,29.91,3,1,10,0.00
2012-11-15,57.0,38.4,31.0,32.0,29.1,26.0,94,71,38,29.91,29.83,3,1,8,0.00
2012-11-16,55.0,40.3,32.0,32.0,27.7,23.0,94,63,35,29.90,29.80,2,1,6,0.00
2012-11-17,66.0,42.8,30.0,34.0,29.7,25.0,95,64,28,30.03,29.90,3,1,10,0.00
2012-11-18,61.0,41.9,32.0,38.0,33.9,30.0,99,76,40,30.06,29.98,3,1,7,0.00
2012-11-19,51.0,41.2,35.0,39.0,36.1,32.0,99,83,59,29.98,29.79,3,1,8,0.00
2012-11-20,64.0,41.4,30.0,40.0,33.2,26.0,99,77,31,29.79,29.71,2,0,7,0.00
2012-11-21,64.0,43.7,33.0,37.0,32.3,27.0,96,70,25,29.77,29.71,3,0,8,0.00
2012-11-22,71.0,45.0,35.0,43.0,37.5,32.0,99,80,35,29.80,29.71,3,0,6,0.00
2012-11-23,64.0,44.2,30.0,48.0,39.8,30.0,99,87,48,29.71,29.44,3,1,7,0.00
2012-11-24,49.0,40.5,33.0,44.0,22.5,14.0,98,50,33,29.53,29.41,8,4,15,0.00
2012-11-25,44.0,36.0,31.0,23.0,18.6,14.0,59,49,37,29.59,29.53,6,3,12,0.00
2012-11-26,55.0,39.1,29.0,25.0,22.0,18.0,82,53,25,29.80,29.59,6,2,10,0.00
2012-11-27,38.0,35.1,29.0,36.0,31.6,25.0,99,87,61,29.81,29.74,2,1,7,0.00
2012-11-28,55.0,36.8,27.0,33.0,26.9,20.0,94,71,34,29.80,29.74,4,1,8,0.00
2012-11-29,52.0,38.0,29.0,27.0,23.2,20.0,71,56,33,29.85,29.80,4,2,8,0.00
2012-11-30,55.0,38.6,27.0,35.0,27.9,23.0,92,68,35,29.91,29.83,2,1,7,0.00
2012-12-1,44.0,38.5,37.0,39.0,35.0,32.0,99,88,68,29.97,29.88,3,2,8,0.00
2012-12-2,56.0,44.1,39.0,46.0,42.5,38.0,99,94,67,29.88,29.71,3,1,8,0.00
2012-12-3,46.0,45.0,41.0,46.0,45.0,41.0,99,99,99,29.71,29.69,1,0,3,0.00
2012-12-4,67.0,53.5,46.0,55.0,51.1,45.0,99,92,64,29.80,29.62,4,2,9,0.00
2012-12-5,62.0,47.8,33.0,50.0,35.8,19.0,99,66,35,29.77,29.59,6,3,12,0.00
2012-12-6,52.0,33.9,26.0,23.0,16.8,-99.9,88,56,26,29.85,29.77,3,1,8,0.00
2012-12-7,45.0,37.1,25.0,44.0,35.0,22.0,99,92,68,29.80,29.65,2,0,4,0.00
2012-12-8,50.0,46.0,41.0,49.0,45.6,41.0,99,98,90,29.65,29.56,2,1,6,0.00
2012-12-9,46.0,42.0,39.0,46.0,40.8,36.0,99,95,78,29.80,29.62,3,1,7,0.00
2012-12-10,55.0,50.9,43.0,55.0,50.9,43.0,99,99,99,29.65,29.35,3,1,6,0.37
2012-12-11,58.0,45.4,38.0,54.0,35.3,25.0,99,70,40,29.74,29.35,4,2,9,3.34
2012-12-12,55.0,39.1,30.0,27.0,24.2,21.0,78,57,29,29.91,29.74,3,1,6,0.00
2012-12-13,61.0,38.3,28.0,33.0,26.5,22.0,96,68,26,29.91,29.83,3,0,6,0.00
2012-12-14,55.0,38.2,24.0,28.0,25.4,22.0,99,65,31,29.83,29.71,4,1,9,0.00
2012-12-15,66.0,40.4,27.0,35.0,28.5,25.0,98,68,25,29.83,29.77,3,0,7,0.00
2012-12-16,46.0,42.4,39.0,43.0,40.0,31.0,99,91,74,29.77,29.56,4,2,12,0.00
2012-12-17,42.0,40.7,39.0,42.0,40.7,39.0,99,99,99,29.56,29.38,3,2,9,0.00
2012-12-18,60.0,47.0,42.0,49.0,42.9,32.0,99,86,59,29.38,29.29,5,2,13,0.00
2012-12-19,53.0,42.5,36.0,33.0,28.1,24.0,74,58,37,29.68,29.37,8,4,14,0.00
2012-12-20,57.0,37.6,26.0,42.0,29.7,24.0,95,75,32,29.77,29.53,5,1,12,0.00
2012-12-21,55.0,44.2,36.0,53.0,38.3,26.0,99,80,63,29.53,29.06,8,5,21,0.00
2012-12-22,37.0,35.2,32.0,31.0,23.1,17.0,93,63,47,29.50,29.21,9,5,19,0.00
2012-12-23,48.0,37.2,29.0,26.0,21.1,15.0,69,53,33,29.59,29.50,5,2,12,0.00
2012-12-24,47.0,34.9,24.0,31.0,23.1,18.0,99,65,37,29.68,29.59,2,1,6,0.00
2012-12-25,53.0,36.6,28.0,36.0,31.1,23.0,99,82,49,29.80,29.56,3,1,9,0.00
2012-12-26,39.0,31.1,25.0,39.0,27.7,21.0,99,87,67,29.80,29.29,5,2,13,0.00
2012-12-27,41.0,35.3,27.0,41.0,32.0,19.0,99,88,70,29.50,29.15,7,4,16,0.00
2012-12-28,46.0,32.6,25.0,25.0,22.0,18.0,89,66,42,29.68,29.50,6,3,13,0.00
2012-12-29,36.0,30.3,23.0,36.0,28.3,22.0,99,92,76,29.68,29.29,4,1,10,0.00
2012-12-30,40.0,30.2,26.0,28.0,17.4,12.0,96,60,34,29.73,29.35,8,5,19,0.00
2012-12-31,44.0,33.2,26.0,23.0,19.3,14.0,70,57,42,29.74,29.56,5,3,9,0.00
2013-1-1,40.0,35.0,25.0,29.0,22.8,10.0,74,61,50,29.62,29.53,5,3,12,0.00